createdAt,value
2019-04-05T00:01:44.914Z,8.63
2019-04-05T00:04:12.268Z,9.67
2019-04-05T00:06:39.511Z,8.20
2019-04-05T00:09:06.918Z,10.60
2019-04-05T00:11:34.193Z,8.20
2019-04-05T00:14:01.472Z,7.97
2019-04-05T00:16:28.790Z,8.17
2019-04-05T00:18:56.045Z,9.23
2019-04-05T00:21:23.284Z,9.67
2019-04-05T00:23:50.576Z,11.00
2019-04-05T00:26:17.836Z,8.07
2019-04-05T00:28:45.103Z,9.43
2019-04-05T00:31:12.386Z,8.03
2019-04-05T00:33:39.714Z,8.47
2019-04-05T00:36:06.971Z,8.10
2019-04-05T00:38:34.241Z,7.53
2019-04-05T00:41:01.636Z,6.30
2019-04-05T00:43:28.959Z,8.50
2019-04-05T00:45:56.230Z,7.87
2019-04-05T00:48:23.487Z,7.13
2019-04-05T00:50:50.745Z,8.47
2019-04-05T00:53:17.974Z,7.10
2019-04-05T00:55:45.275Z,8.00
2019-04-05T00:58:12.644Z,7.73
2019-04-05T01:00:40.029Z,9.70
2019-04-05T01:03:07.325Z,8.50
2019-04-05T01:05:34.793Z,6.73
2019-04-05T01:08:02.049Z,6.33
2019-04-05T01:10:29.426Z,6.67
2019-04-05T01:12:56.681Z,6.37
2019-04-05T01:15:23.920Z,5.47
2019-04-05T01:17:52.023Z,6.57
2019-04-05T01:20:19.296Z,6.47
2019-04-05T01:22:46.738Z,6.03
2019-04-05T01:25:14.279Z,5.80
2019-04-05T01:27:41.835Z,6.77
2019-04-05T01:30:11.687Z,6.27
2019-04-05T01:32:39.089Z,6.37
2019-04-05T01:35:06.833Z,5.93
2019-04-05T01:37:35.569Z,6.13
2019-04-05T01:40:02.937Z,5.90
2019-04-05T01:42:30.352Z,6.60
2019-04-05T01:44:58.173Z,5.63
2019-04-05T01:47:25.420Z,5.83
2019-04-05T01:49:52.667Z,6.30
2019-04-05T01:52:20.180Z,7.27
2019-04-05T01:54:47.476Z,6.70
2019-04-05T01:57:14.779Z,5.53
2019-04-05T01:59:42.046Z,6.90
2019-04-05T02:02:09.497Z,4.90
2019-04-05T02:04:36.753Z,5.57
2019-04-05T02:07:04.150Z,5.33
2019-04-05T02:09:31.747Z,4.60
2019-04-05T02:11:59.098Z,5.10
2019-04-05T02:14:26.531Z,4.83
2019-04-05T02:16:54.002Z,4.83
2019-04-05T02:19:21.338Z,4.87
2019-04-05T02:21:48.610Z,4.70
2019-04-05T02:24:15.913Z,6.20
2019-04-05T02:26:43.161Z,5.07
2019-04-05T02:29:10.538Z,6.20
2019-04-05T02:31:37.858Z,4.70
2019-04-05T02:34:05.124Z,5.20
2019-04-05T02:36:32.376Z,5.37
2019-04-05T02:38:59.666Z,6.20
2019-04-05T02:41:29.128Z,8.77
2019-04-05T02:43:57.657Z,8.77
2019-04-05T02:46:25.656Z,8.70
2019-04-05T02:48:53.608Z,9.57
2019-04-05T02:51:24.467Z,8.07
2019-04-05T02:53:52.887Z,7.90
2019-04-05T02:56:21.064Z,7.90
2019-04-05T02:58:49.203Z,7.43
2019-04-05T03:01:16.985Z,7.30
2019-04-05T03:03:44.429Z,6.77
2019-04-05T03:06:11.729Z,9.40
2019-04-05T03:08:40.686Z,9.67
2019-04-05T03:11:15.102Z,10.80
2019-04-05T03:13:50.776Z,10.47
2019-04-05T03:16:38.625Z,11.10
2019-04-05T03:19:02.811Z,8.27
2019-04-05T03:21:33.050Z,9.40
2019-04-05T03:24:03.900Z,7.23
2019-04-05T03:26:35.653Z,7.37
2019-04-05T03:29:06.762Z,7.10
2019-04-05T03:31:34.318Z,6.83
2019-04-05T03:34:02.033Z,7.73
2019-04-05T03:36:29.424Z,6.83
2019-04-05T03:38:57.333Z,9.30
2019-04-05T03:41:24.821Z,9.87
2019-04-05T03:43:52.184Z,9.30
2019-04-05T03:46:19.638Z,8.30
2019-04-05T03:48:48.205Z,9.73
2019-04-05T03:51:15.497Z,10.57
2019-04-05T03:53:42.903Z,9.47
2019-04-05T03:56:10.415Z,9.93
2019-04-05T03:58:37.828Z,9.97
2019-04-05T04:01:05.485Z,9.20
2019-04-05T04:03:33.121Z,9.47
2019-04-05T04:06:00.640Z,7.97
2019-04-05T04:08:28.932Z,5.47
2019-04-05T04:10:56.256Z,5.77
2019-04-05T04:13:23.528Z,5.10
2019-04-05T04:15:52.121Z,5.37
2019-04-05T04:18:19.445Z,6.07
2019-04-05T04:20:50.112Z,5.47
2019-04-05T04:23:19.628Z,6.03
2019-04-05T04:25:48.415Z,4.50
2019-04-05T04:28:15.747Z,4.43
2019-04-05T04:30:43.171Z,5.13
2019-04-05T04:33:11.567Z,4.93
2019-04-05T04:35:40.114Z,7.60
2019-04-05T04:38:07.826Z,5.00
2019-04-05T04:40:35.973Z,4.33
2019-04-05T04:43:03.312Z,7.03
2019-04-05T04:45:31.802Z,5.83
2019-04-05T04:47:59.325Z,5.57
2019-04-05T04:50:27.293Z,5.13
2019-04-05T04:52:55.170Z,6.63
2019-04-05T04:55:22.483Z,6.13
2019-04-05T04:57:49.898Z,5.50
2019-04-05T05:00:17.697Z,5.67
2019-04-05T05:02:45.020Z,5.80
2019-04-05T05:05:13.050Z,7.63
2019-04-05T05:07:40.628Z,6.20
2019-04-05T05:10:09.668Z,5.87
2019-04-05T05:12:37.622Z,10.23
2019-04-05T05:15:05.430Z,8.83
2019-04-05T05:17:38.330Z,8.67
2019-04-05T05:20:03.496Z,11.13
2019-04-05T05:22:31.307Z,14.47
2019-04-05T05:24:59.132Z,17.33
2019-04-05T05:27:26.593Z,17.97
2019-04-05T05:29:53.804Z,18.57
2019-04-05T05:32:21.138Z,16.33
2019-04-05T05:35:01.162Z,16.70
2019-04-05T05:37:18.788Z,19.53
2019-04-05T05:39:46.162Z,15.77
2019-04-05T05:42:13.433Z,16.37
2019-04-05T05:44:40.643Z,15.53
2019-04-05T05:47:09.205Z,16.67
2019-04-05T05:49:36.406Z,15.40
2019-04-05T05:52:04.023Z,13.80
2019-04-05T05:54:31.279Z,12.93
2019-04-05T05:56:58.571Z,13.90
2019-04-05T05:59:27.763Z,18.03
2019-04-05T06:01:54.925Z,14.07
2019-04-05T06:04:22.142Z,14.37
2019-04-05T06:06:49.360Z,12.20
2019-04-05T06:09:16.650Z,10.87
2019-04-05T06:11:43.869Z,12.77
2019-04-05T06:14:11.116Z,10.20
2019-04-05T06:16:46.450Z,10.43
2019-04-05T06:19:07.468Z,11.30
2019-04-05T06:21:34.778Z,12.60
2019-04-05T06:24:05.133Z,10.53
2019-04-05T06:26:31.120Z,9.53
2019-04-05T06:28:58.376Z,10.07
2019-04-05T06:31:25.627Z,9.20
2019-04-05T06:33:52.992Z,9.63
2019-04-05T06:36:20.232Z,10.20
2019-04-05T06:38:47.445Z,10.57
2019-04-05T06:41:14.706Z,9.63
2019-04-05T06:43:41.943Z,9.70
2019-04-05T06:46:09.223Z,12.73
2019-04-05T06:48:36.524Z,11.63
2019-04-05T06:51:03.842Z,13.10
2019-04-05T06:53:31.402Z,11.73
2019-04-05T06:55:59.926Z,15.53
2019-04-05T06:58:29.318Z,12.87
2019-04-05T07:00:57.605Z,13.90
2019-04-05T07:03:27.586Z,15.43
2019-04-05T07:05:54.821Z,15.03
2019-04-05T07:08:22.062Z,17.80
2019-04-05T07:10:49.315Z,14.70
2019-04-05T07:13:16.677Z,18.30
2019-04-05T07:15:43.959Z,17.07
2019-04-05T07:18:11.167Z,17.13
2019-04-05T07:20:38.377Z,16.20
2019-04-05T07:23:05.642Z,16.73
2019-04-05T07:25:32.897Z,17.33
2019-04-05T07:28:00.134Z,14.30
2019-04-05T07:30:28.926Z,15.23
2019-04-05T07:32:56.386Z,16.60
2019-04-05T07:35:33.417Z,14.33
2019-04-05T07:37:52.791Z,13.20
2019-04-05T07:40:20.142Z,11.57
2019-04-05T07:42:47.416Z,14.90
2019-04-05T07:45:14.781Z,11.17
2019-04-05T07:47:42.017Z,13.93
2019-04-05T07:50:09.869Z,12.77
2019-04-05T07:52:37.179Z,11.90
2019-04-05T07:55:04.691Z,12.33
2019-04-05T07:57:31.969Z,10.50
2019-04-05T07:59:59.225Z,12.37
2019-04-05T08:02:26.455Z,10.90
2019-04-05T08:04:54.807Z,11.37
2019-04-05T08:07:24.849Z,10.53
2019-04-05T08:09:53.486Z,13.53
2019-04-05T08:12:21.157Z,8.97
2019-04-05T08:14:48.906Z,12.77
2019-04-05T08:17:16.136Z,11.13
2019-04-05T08:19:43.364Z,10.80
2019-04-05T08:22:10.614Z,9.20
2019-04-05T08:24:37.860Z,12.50
2019-04-05T08:27:05.099Z,11.77
2019-04-05T08:29:32.308Z,11.27
2019-04-05T08:31:59.935Z,10.30
2019-04-05T08:34:27.173Z,9.23
2019-04-05T08:36:54.395Z,9.87
2019-04-05T08:39:21.654Z,11.77
2019-04-05T08:41:48.872Z,13.67
2019-04-05T08:44:16.460Z,10.97
2019-04-05T08:46:43.829Z,9.77
2019-04-05T08:49:11.950Z,12.53
2019-04-05T08:51:39.285Z,11.57
2019-04-05T08:54:06.624Z,10.03
2019-04-05T08:56:33.834Z,7.93
2019-04-05T08:59:01.105Z,6.53
2019-04-05T09:01:28.372Z,6.07
2019-04-05T09:03:55.577Z,6.73
2019-04-05T09:06:22.802Z,6.60
2019-04-05T09:08:50.185Z,8.33
2019-04-05T09:11:17.400Z,7.27
2019-04-05T09:13:44.708Z,6.60
2019-04-05T09:16:11.983Z,6.07
2019-04-05T09:18:39.167Z,7.90
2019-04-05T09:21:06.448Z,8.43
2019-04-05T09:23:33.666Z,7.43
2019-04-05T09:26:00.867Z,9.07
2019-04-05T09:28:28.150Z,10.17
2019-04-05T09:30:55.381Z,6.77
2019-04-05T09:33:22.635Z,12.23
2019-04-05T09:35:49.886Z,9.50
2019-04-05T09:38:17.113Z,8.93
2019-04-05T09:40:44.416Z,10.50
2019-04-05T09:43:11.666Z,9.20
2019-04-05T09:45:38.951Z,10.50
2019-04-05T09:48:06.324Z,8.50
2019-04-05T09:50:33.611Z,9.63
2019-04-05T09:53:00.910Z,8.07
2019-04-05T09:55:28.191Z,8.20
2019-04-05T09:57:55.517Z,8.70
2019-04-05T10:00:24.331Z,9.13
2019-04-05T10:02:51.571Z,10.60
2019-04-05T10:05:18.817Z,7.87
2019-04-05T10:07:54.776Z,8.90
2019-04-05T10:10:15.309Z,7.70
2019-04-05T10:12:42.559Z,9.63
2019-04-05T10:15:10.111Z,7.73
2019-04-05T10:17:37.326Z,8.13
2019-04-05T10:20:08.361Z,7.07
2019-04-05T10:22:35.582Z,6.93
2019-04-05T10:25:03.843Z,8.10
2019-04-05T10:27:31.112Z,10.13
2019-04-05T10:29:58.390Z,8.17
2019-04-05T10:32:25.727Z,8.27
2019-04-05T10:34:52.991Z,9.50
2019-04-05T10:37:20.382Z,7.67
2019-04-05T10:39:47.619Z,10.10
2019-04-05T10:42:32.591Z,10.37
2019-04-05T10:45:02.856Z,7.90
2019-04-05T10:47:30.368Z,7.23
2019-04-05T10:50:03.313Z,7.77
2019-04-05T10:52:26.752Z,9.73
2019-04-05T10:54:53.991Z,7.53
2019-04-05T10:57:21.295Z,7.07
2019-04-05T10:59:48.575Z,9.03
2019-04-05T11:02:15.833Z,8.07
2019-04-05T11:04:43.047Z,8.43
2019-04-05T11:07:10.504Z,9.30
2019-04-05T11:09:37.758Z,7.47
2019-04-05T11:12:05.036Z,6.33
2019-04-05T11:14:32.319Z,6.80
2019-04-05T11:16:59.538Z,8.57
2019-04-05T11:19:26.788Z,10.23
2019-04-05T11:21:54.063Z,7.63
2019-04-05T11:24:21.287Z,8.73
2019-04-05T11:26:48.590Z,8.50
2019-04-05T11:29:15.842Z,8.17
2019-04-05T11:31:55.947Z,8.43
2019-04-05T11:34:12.291Z,8.30
2019-04-05T11:36:39.747Z,7.57
2019-04-05T11:39:07.519Z,8.27
2019-04-05T11:41:35.856Z,10.00
2019-04-05T11:44:03.218Z,7.83
2019-04-05T11:46:30.948Z,7.97
2019-04-05T11:48:58.790Z,7.83
2019-04-05T11:51:26.013Z,8.40
2019-04-05T11:53:53.323Z,7.53
2019-04-05T11:56:20.667Z,9.03
2019-04-05T11:58:49.360Z,9.13
2019-04-05T12:01:29.222Z,9.17
2019-04-05T12:03:56.470Z,7.83
2019-04-05T12:06:23.719Z,7.60
2019-04-05T12:08:51.002Z,7.73
2019-04-05T12:11:18.252Z,7.47
2019-04-05T12:13:47.615Z,6.40
2019-04-05T12:16:14.704Z,9.47
2019-04-05T12:18:41.944Z,7.03
2019-04-05T12:21:09.195Z,7.87
2019-04-05T12:23:36.652Z,7.30
2019-04-05T12:26:04.872Z,7.60
2019-04-05T12:28:32.225Z,7.87
2019-04-05T12:30:59.542Z,6.77
2019-04-05T12:33:26.781Z,8.80
2019-04-05T12:35:56.592Z,6.53
2019-04-05T12:38:33.407Z,10.23
2019-04-05T12:41:02.374Z,7.97
2019-04-05T12:43:29.696Z,5.93
2019-04-05T12:45:56.917Z,6.57
2019-04-05T12:48:24.474Z,5.73
2019-04-05T12:51:01.068Z,7.40
2019-04-05T12:53:20.863Z,6.53
2019-04-05T12:55:48.120Z,6.53
2019-04-05T12:58:15.400Z,6.83
2019-04-05T13:00:43.435Z,6.53
2019-04-05T13:03:10.955Z,6.50
2019-04-05T13:05:38.261Z,7.60
2019-04-05T13:08:05.513Z,6.43
2019-04-05T13:10:32.802Z,7.33
2019-04-05T13:13:00.103Z,7.70
2019-04-05T13:15:27.348Z,8.47
2019-04-05T13:17:54.588Z,7.73
2019-04-05T13:20:22.006Z,6.27
2019-04-05T13:22:49.257Z,7.63
2019-04-05T13:25:16.486Z,9.07
2019-04-05T13:27:43.736Z,7.33
2019-04-05T13:30:11.565Z,6.93
2019-04-05T13:32:38.796Z,7.60
2019-04-05T13:35:06.760Z,9.10
2019-04-05T13:37:34.002Z,7.37
2019-04-05T13:40:01.322Z,7.87
2019-04-05T13:42:31.225Z,6.20
2019-04-05T13:44:57.708Z,8.13
2019-04-05T13:47:24.939Z,7.53
2019-04-05T13:49:52.219Z,9.43
2019-04-05T13:52:19.443Z,6.67
2019-04-05T13:54:46.674Z,6.47
2019-04-05T13:57:13.961Z,6.70
2019-04-05T13:59:41.262Z,7.70
2019-04-05T14:02:08.526Z,9.07
2019-04-05T14:04:35.811Z,7.50
2019-04-05T14:07:03.765Z,6.67
2019-04-05T14:09:31.688Z,8.07
2019-04-05T14:11:59.180Z,7.03
2019-04-05T14:14:28.407Z,7.83
2019-04-05T14:16:55.534Z,8.63
2019-04-05T14:19:22.792Z,7.33
2019-04-05T14:21:52.733Z,9.27
2019-04-05T14:24:19.158Z,14.80
2019-04-05T14:26:46.470Z,8.57
2019-04-05T14:29:13.710Z,5.70
2019-04-05T14:31:40.983Z,9.00
2019-04-05T14:34:08.219Z,6.00
2019-04-05T14:36:35.449Z,6.33
2019-04-05T14:39:04.348Z,6.07
2019-04-05T14:41:31.587Z,7.20
2019-04-05T14:43:58.819Z,9.27
2019-04-05T14:46:28.470Z,9.90
2019-04-05T14:48:55.299Z,5.53
2019-04-05T14:51:22.630Z,5.93
2019-04-05T14:53:49.891Z,6.53
2019-04-05T14:56:17.309Z,7.63
2019-04-05T14:58:44.617Z,8.43
2019-04-05T15:01:12.330Z,7.77
2019-04-05T15:03:39.623Z,8.00
2019-04-05T15:06:06.908Z,6.43
2019-04-05T15:08:34.129Z,7.97
2019-04-05T15:11:01.965Z,8.00
2019-04-05T15:13:29.244Z,7.97
2019-04-05T15:15:56.861Z,8.70
2019-04-05T15:18:25.196Z,10.47
2019-04-05T15:20:52.578Z,8.27
2019-04-05T15:23:19.798Z,9.00
2019-04-05T15:25:49.443Z,10.20
2019-04-05T15:28:16.217Z,12.37
2019-04-05T15:30:43.444Z,11.37
2019-04-05T15:33:10.735Z,11.20
2019-04-05T15:35:38.131Z,9.63
2019-04-05T15:38:05.385Z,9.00
2019-04-05T15:40:32.650Z,11.20
2019-04-05T15:42:59.898Z,9.57
2019-04-05T15:45:27.162Z,10.73
2019-04-05T15:47:54.386Z,8.47
2019-04-05T15:50:22.049Z,12.00
2019-04-05T15:52:49.974Z,8.27
2019-04-05T15:55:17.186Z,9.57
2019-04-05T15:57:44.452Z,9.37
2019-04-05T16:00:13.709Z,9.70
2019-04-05T16:02:42.995Z,9.33
2019-04-05T16:05:10.508Z,7.37
2019-04-05T16:07:37.879Z,7.63
2019-04-05T16:10:05.646Z,8.80
2019-04-05T16:12:32.868Z,10.90
2019-04-05T16:15:00.157Z,9.37
2019-04-05T16:17:27.367Z,12.67
2019-04-05T16:19:54.657Z,10.77
2019-04-05T16:22:31.149Z,7.70
2019-04-05T16:24:51.094Z,11.40
2019-04-05T16:27:18.365Z,11.20
2019-04-05T16:29:45.601Z,8.80
2019-04-05T16:32:13.324Z,11.40
2019-04-05T16:34:40.667Z,10.00
2019-04-05T16:37:08.089Z,9.60
2019-04-05T16:39:35.345Z,13.67
2019-04-05T16:42:02.722Z,10.30
2019-04-05T16:44:29.934Z,10.90
2019-04-05T16:46:57.152Z,10.73
2019-04-05T16:49:24.414Z,10.43
2019-04-05T16:51:51.674Z,10.87
2019-04-05T16:54:18.908Z,12.00
2019-04-05T16:56:46.194Z,12.17
2019-04-05T16:59:13.421Z,9.23
2019-04-05T17:01:40.675Z,11.97
2019-04-05T17:04:07.939Z,9.83
2019-04-05T17:06:37.020Z,11.97
2019-04-05T17:09:06.616Z,11.70
2019-04-05T17:11:33.897Z,13.30
2019-04-05T17:14:01.101Z,9.97
2019-04-05T17:16:28.314Z,10.80
2019-04-05T17:18:55.584Z,10.70
2019-04-05T17:21:22.819Z,11.27
2019-04-05T17:23:50.037Z,11.73
2019-04-05T17:26:17.321Z,11.40
2019-04-05T17:28:44.568Z,12.33
2019-04-05T17:31:11.796Z,10.93
2019-04-05T17:33:39.064Z,11.83
2019-04-05T17:36:06.291Z,11.30
2019-04-05T17:38:33.518Z,11.67
2019-04-05T17:41:00.790Z,10.23
2019-04-05T17:43:28.007Z,11.67
2019-04-05T17:45:55.284Z,10.57
2019-04-05T17:48:22.578Z,17.70
2019-04-05T17:50:49.935Z,12.30
2019-04-05T17:53:17.184Z,13.60
2019-04-05T17:55:44.576Z,14.67
2019-04-05T17:58:12.073Z,16.53
2019-04-05T18:00:39.396Z,13.33
2019-04-05T18:03:06.695Z,16.40
2019-04-05T18:05:33.958Z,11.37
2019-04-05T18:08:01.235Z,12.73
2019-04-05T18:10:28.535Z,11.90
2019-04-05T18:12:55.777Z,12.90
2019-04-05T18:15:23.511Z,11.50
2019-04-05T18:17:50.713Z,12.07
2019-04-05T18:20:17.961Z,8.93
2019-04-05T18:22:45.280Z,9.30
2019-04-05T18:25:14.234Z,13.30
2019-04-05T18:27:41.681Z,12.07
2019-04-05T18:30:09.504Z,10.53
2019-04-05T18:32:36.747Z,9.37
2019-04-05T18:35:04.592Z,9.90
2019-04-05T18:37:34.992Z,14.27
2019-04-05T18:40:03.585Z,11.33
2019-04-05T18:42:31.265Z,15.03
2019-04-05T18:44:58.748Z,13.23
2019-04-05T18:47:26.307Z,12.13
2019-04-05T18:50:02.994Z,12.93
2019-04-05T18:52:22.725Z,10.10
2019-04-05T18:54:50.103Z,13.17
2019-04-05T18:57:17.389Z,11.60
2019-04-05T18:59:44.604Z,11.10
2019-04-05T19:02:11.858Z,9.40
2019-04-05T19:04:39.354Z,14.00
2019-04-05T19:07:06.942Z,11.97
2019-04-05T19:09:34.409Z,12.63
2019-04-05T19:12:03.353Z,11.87
2019-04-05T19:14:30.707Z,16.23
2019-04-05T19:16:59.357Z,15.33
2019-04-05T19:19:26.928Z,14.63
2019-04-05T19:21:54.314Z,15.17
2019-04-05T19:24:21.542Z,13.27
2019-04-05T19:26:49.975Z,13.90
2019-04-05T19:29:17.277Z,13.83
2019-04-05T19:49:09.508Z,14.97
2019-04-05T19:51:36.859Z,22.27
2019-04-05T19:54:04.206Z,20.00
2019-04-05T19:56:31.468Z,17.27
2019-04-05T19:58:59.990Z,17.63
2019-04-05T20:01:27.248Z,24.30
2019-04-05T20:03:54.559Z,20.23
2019-04-05T20:06:21.806Z,14.40
2019-04-05T20:08:49.066Z,13.53
2019-04-05T20:11:18.015Z,18.03
2019-04-05T20:13:45.420Z,14.27
2019-04-05T20:16:12.749Z,11.73
2019-04-05T20:18:40.050Z,11.87
2019-04-05T20:21:07.283Z,11.93
2019-04-05T20:23:34.938Z,10.97
2019-04-05T20:26:02.216Z,9.60
2019-04-05T20:28:29.431Z,13.97
2019-04-05T20:30:56.723Z,11.60
2019-04-05T20:33:23.996Z,10.87
2019-04-05T20:35:51.435Z,9.87
2019-04-05T20:38:18.690Z,10.53
2019-04-05T20:40:45.988Z,10.63
2019-04-05T20:43:13.214Z,10.20
2019-04-05T20:45:40.475Z,9.90
2019-04-05T20:48:07.758Z,13.10
2019-04-05T20:50:35.015Z,12.60
2019-04-05T20:53:02.265Z,14.27
2019-04-05T20:55:29.495Z,11.87
2019-04-05T20:57:56.736Z,12.83
2019-04-05T21:00:23.967Z,15.00
2019-04-05T21:02:51.242Z,9.40
2019-04-05T21:05:25.354Z,15.33
2019-04-05T21:07:47.616Z,10.40
2019-04-05T21:10:14.883Z,12.40
2019-04-05T21:12:42.180Z,10.27
2019-04-05T21:15:09.623Z,11.77
2019-04-05T21:17:36.899Z,9.17
2019-04-05T21:20:05.424Z,8.87
2019-04-05T21:22:32.683Z,10.27
2019-04-05T21:24:59.988Z,8.17
2019-04-05T21:27:27.235Z,6.67
2019-04-05T21:29:54.480Z,8.63
2019-04-05T21:32:21.789Z,8.87
2019-04-05T21:34:49.145Z,8.77
2019-04-05T21:37:16.416Z,10.73
2019-04-05T21:39:43.719Z,12.73
2019-04-05T21:42:10.983Z,8.17
2019-04-05T21:44:38.519Z,12.07
2019-04-05T21:47:05.808Z,11.77
2019-04-05T21:49:33.097Z,10.20
2019-04-05T21:52:00.362Z,11.07
2019-04-05T21:54:27.646Z,10.03
2019-04-05T21:56:54.906Z,9.20
2019-04-05T21:59:22.184Z,7.57
2019-04-05T22:01:50.049Z,7.07
2019-04-05T22:04:17.405Z,8.13
2019-04-05T22:06:44.716Z,8.03
2019-04-05T22:09:12.172Z,7.03
2019-04-05T22:11:39.463Z,8.20
2019-04-05T22:14:06.830Z,7.27
2019-04-05T22:16:34.109Z,10.13
2019-04-05T22:19:01.336Z,6.60
2019-04-05T22:21:29.091Z,8.07
2019-04-05T22:23:56.833Z,8.43
2019-04-05T22:26:24.596Z,7.17
2019-04-05T22:28:52.336Z,7.87
2019-04-05T22:31:19.663Z,10.80
2019-04-05T22:33:46.948Z,10.23
2019-04-05T22:36:14.245Z,8.83
2019-04-05T22:38:41.518Z,9.47
2019-04-05T22:41:08.818Z,8.63
2019-04-05T22:43:36.103Z,8.30
2019-04-05T22:46:03.368Z,8.20
2019-04-05T22:48:30.650Z,8.93
2019-04-05T22:50:57.908Z,11.23
2019-04-05T22:53:25.208Z,11.07
2019-04-05T22:55:52.559Z,15.00
2019-04-05T22:58:19.979Z,12.23
2019-04-05T23:00:47.256Z,12.17
2019-04-05T23:03:14.566Z,8.73
2019-04-05T23:05:41.891Z,10.23
2019-04-05T23:08:09.206Z,8.53
2019-04-05T23:10:36.473Z,9.33
2019-04-05T23:13:03.754Z,10.37
2019-04-05T23:15:31.058Z,9.07
2019-04-05T23:17:58.322Z,8.50
2019-04-05T23:20:25.588Z,11.50
2019-04-05T23:22:52.889Z,10.10
2019-04-05T23:25:22.199Z,10.80
2019-04-05T23:27:49.361Z,14.90
2019-04-05T23:30:17.966Z,10.67
2019-04-05T23:32:45.229Z,14.40
2019-04-05T23:35:12.614Z,13.67
2019-04-05T23:37:39.915Z,12.73
2019-04-05T23:40:07.168Z,11.57
2019-04-05T23:42:34.485Z,12.33
2019-04-05T23:45:01.748Z,9.90
2019-04-05T23:47:29.026Z,10.20
2019-04-05T23:49:56.336Z,11.33
2019-04-05T23:52:23.599Z,11.93
2019-04-05T23:54:50.901Z,13.70
2019-04-05T23:57:18.169Z,11.17
2019-04-05T23:59:45.483Z,12.37
